createdAt,value
2023-02-14T00:07:13.334Z,22.95
2023-02-14T00:17:15.926Z,30.35
2023-02-14T00:27:18.458Z,26.47
2023-02-14T00:37:21.020Z,27.85
2023-02-14T00:47:23.551Z,20.50
2023-02-14T00:57:27.485Z,25.83
2023-02-14T01:07:30.146Z,19.77
2023-02-14T01:17:32.708Z,20.23
2023-02-14T01:27:35.252Z,18.47
2023-02-14T01:37:38.007Z,15.80
2023-02-14T01:47:43.353Z,18.35
2023-02-14T01:57:56.048Z,19.17
2023-02-14T02:08:01.430Z,16.17
2023-02-14T02:18:16.844Z,15.48
2023-02-14T02:28:40.885Z,13.00
2023-02-14T02:38:59.485Z,10.50
2023-02-14T02:49:47.616Z,11.70
2023-02-14T02:59:54.752Z,13.23
2023-02-14T03:10:00.256Z,15.73
2023-02-14T03:20:16.501Z,13.00
2023-02-14T03:30:47.159Z,13.57
2023-02-14T03:40:58.431Z,15.53
2023-02-14T03:51:04.614Z,14.60
2023-02-14T04:01:14.285Z,15.65
2023-02-14T04:11:16.952Z,11.52
2023-02-14T04:21:19.500Z,11.17
2023-02-14T04:31:22.065Z,11.67
2023-02-14T04:41:24.604Z,12.23
2023-02-14T04:51:27.706Z,14.87
2023-02-14T05:01:30.308Z,13.27
2023-02-14T05:11:32.952Z,15.73
2023-02-14T05:21:35.406Z,9.17
2023-02-14T05:31:38.045Z,18.73
2023-02-14T05:41:41.335Z,17.17
2023-02-14T05:51:43.853Z,15.63
2023-02-14T06:01:46.429Z,19.13
2023-02-14T06:11:48.904Z,17.93
2023-02-14T06:21:51.364Z,18.25
2023-02-14T06:31:54.026Z,17.03
2023-02-14T06:41:56.737Z,18.60
2023-02-14T06:51:59.506Z,30.38
2023-02-14T07:02:02.023Z,17.93
2023-02-14T07:12:04.700Z,14.67
2023-02-14T07:22:07.252Z,18.33
2023-02-14T07:32:10.063Z,13.25
2023-02-14T07:42:12.859Z,23.67
2023-02-14T07:52:15.492Z,17.10
2023-02-14T08:02:18.065Z,16.50
2023-02-14T08:12:39.019Z,13.43
2023-02-14T08:22:41.808Z,13.77
2023-02-14T08:32:44.463Z,15.77
2023-02-14T08:42:47.149Z,22.43
2023-02-14T08:52:49.702Z,18.03
2023-02-14T09:02:53.331Z,25.00
2023-02-14T09:12:55.977Z,21.57
2023-02-14T09:22:58.641Z,19.00
2023-02-14T09:33:04.345Z,28.77
2023-02-14T09:43:15.984Z,24.35
2023-02-14T09:53:43.806Z,25.03
2023-02-14T10:04:10.953Z,18.43
2023-02-14T10:14:18.277Z,19.17
2023-02-14T10:24:30.248Z,25.17
2023-02-14T10:34:42.859Z,25.33
2023-02-14T10:45:14.913Z,20.65
2023-02-14T10:55:34.414Z,26.17
2023-02-14T11:05:46.695Z,22.70
2023-02-14T11:15:51.843Z,23.87
2023-02-14T11:25:55.872Z,31.30
2023-02-14T11:36:00.094Z,23.03
2023-02-14T11:46:14.469Z,23.47
2023-02-14T11:56:20.221Z,21.33
2023-02-14T12:06:29.219Z,21.27
2023-02-14T12:16:40.271Z,21.87
2023-02-14T12:27:40.748Z,23.60
2023-02-14T12:38:04.955Z,28.77
2023-02-14T12:48:26.117Z,24.77
2023-02-14T12:58:49.683Z,24.37
2023-02-14T13:09:13.586Z,20.73
2023-02-14T13:19:34.591Z,22.50
2023-02-14T13:29:47.202Z,24.83
2023-02-14T13:39:57.341Z,23.17
2023-02-14T13:50:02.066Z,21.87
2023-02-14T14:00:19.980Z,19.03
2023-02-14T14:10:44.769Z,23.25
2023-02-14T14:20:51.908Z,20.20
2023-02-14T14:30:55.006Z,23.23
2023-02-14T14:40:58.073Z,19.20
2023-02-14T14:51:07.023Z,19.13
2023-02-14T15:01:28.196Z,20.60
2023-02-14T15:11:58.507Z,21.77
2023-02-14T15:22:03.543Z,22.80
2023-02-14T15:32:09.021Z,24.73
2023-02-14T15:42:27.674Z,26.90
2023-02-14T15:52:30.382Z,28.75
2023-02-14T16:02:38.917Z,24.23
2023-02-14T16:12:42.390Z,25.70
2023-02-14T16:22:45.154Z,22.33
2023-02-14T16:32:50.796Z,35.40
2023-02-14T16:42:53.913Z,26.27
2023-02-14T16:52:57.997Z,29.43
2023-02-14T17:03:06.928Z,23.40
2023-02-14T17:13:11.076Z,23.10
2023-02-14T17:23:13.775Z,26.70
2023-02-14T17:33:16.434Z,42.35
2023-02-14T17:43:19.268Z,33.03
2023-02-14T17:53:21.760Z,42.20
2023-02-14T18:03:24.556Z,31.20
2023-02-14T18:13:27.421Z,31.45
2023-02-14T18:23:31.253Z,75.77
2023-02-14T18:33:35.184Z,66.60
2023-02-14T18:43:41.006Z,36.42
2023-02-14T18:53:45.099Z,46.10
2023-02-14T19:03:49.801Z,45.43
2023-02-14T19:13:56.182Z,43.88
2023-02-14T19:23:59.148Z,47.87
2023-02-14T19:34:02.238Z,57.53
2023-02-14T19:44:06.743Z,51.73
2023-02-14T19:54:10.249Z,48.20
2023-02-14T20:04:16.214Z,50.13
2023-02-14T20:14:21.362Z,55.40
2023-02-14T20:24:26.984Z,65.07
2023-02-14T20:34:29.765Z,64.33
2023-02-14T20:44:34.741Z,50.77
2023-02-14T20:54:38.930Z,56.60
2023-02-14T21:04:41.785Z,40.70
2023-02-14T21:14:44.519Z,50.80
2023-02-14T21:24:50.044Z,48.57
2023-02-14T21:34:52.855Z,38.42
2023-02-14T21:45:14.188Z,36.67
2023-02-14T21:55:17.016Z,33.83
2023-02-14T22:05:19.730Z,31.08
2023-02-14T22:15:22.160Z,28.30
2023-02-14T22:25:25.736Z,30.13
2023-02-14T22:35:28.332Z,32.65
2023-02-14T22:45:30.736Z,29.03
2023-02-14T22:55:33.414Z,25.43
2023-02-14T23:05:36.000Z,24.77
2023-02-14T23:15:56.778Z,30.60
2023-02-14T23:26:00.797Z,25.00
2023-02-14T23:36:04.324Z,24.57
2023-02-14T23:46:06.816Z,27.50
2023-02-14T23:56:09.405Z,26.23
